Time;durP1;ratioP1;P1;durP2;ratioP2;P2;SDS_P1;SDS_P2;PMS_P1;PMS_P2;Temp;Humidity;BMP_temperature;BMP_pressure;BME280_temperature;BME280_humidity;BME280_pressure;Samples;Min_cycle;Max_cycle;Signal;HPM_P1;HPM_P2
2022/08/05 00:01:22;;;;;;;3.27;2.97;;;25.80;90.70;;;;;;4983887;28;20444;-85
2022/08/05 00:03:53;;;;;;;3.90;3.13;;;25.80;90.90;;;;;;4984296;28;20508;-86
2022/08/05 00:06:20;;;;;;;2.83;2.60;;;25.70;91.30;;;;;;4966293;28;21405;-85
2022/08/05 00:08:59;;;;;;;2.50;2.30;;;25.60;91.60;;;;;;4980974;28;20553;-85
2022/08/05 00:11:26;;;;;;;3.77;2.77;;;25.70;91.60;;;;;;4966077;28;20462;-85
2022/08/05 00:13:56;;;;;;;5.00;3.03;;;25.60;91.80;;;;;;4964386;28;20482;-84
2022/08/05 00:16:23;;;;;;;3.20;2.70;;;25.50;92.20;;;;;;5000994;28;20458;-82
2022/08/05 00:19:02;;;;;;;3.03;2.83;;;25.40;92.70;;;;;;4990859;28;20678;-82
2022/08/05 00:21:29;;;;;;;3.63;2.90;;;25.40;92.90;;;;;;4975412;28;20534;-85
2022/08/05 00:23:56;;;;;;;4.10;3.40;;;25.30;93.10;;;;;;4992610;28;20441;-83
2022/08/05 00:26:31;;;;;;;7.50;3.23;;;25.40;93.40;;;;;;4996674;28;21864;-83
2022/08/05 00:28:58;;;;;;;3.53;3.23;;;25.40;93.60;;;;;;4973928;28;20451;-82
2022/08/05 00:31:25;;;;;;;4.90;2.77;;;25.40;93.60;;;;;;4984912;28;20459;-83
2022/08/05 00:34:07;;;;;;;4.67;3.50;;;25.50;93.70;;;;;;4984508;28;21008;-84
2022/08/05 00:36:54;;;;;;;3.57;3.27;;;25.70;93.80;;;;;;4988317;28;20438;-84
2022/08/05 00:39:39;;;;;;;3.50;3.20;;;25.50;94.00;;;;;;4996071;28;20466;-84
2022/08/05 00:42:07;;;;;;;3.20;3.00;;;25.40;94.50;;;;;;4982877;28;20455;-85
2022/08/05 00:44:34;;;;;;;4.57;3.20;;;25.40;94.70;;;;;;4996269;28;20459;-86
2022/08/05 00:47:00;;;;;;;3.93;3.63;;;25.40;94.80;;;;;;4997148;28;20458;-85
2022/08/05 00:49:30;;;;;;;3.73;3.27;;;25.50;94.80;;;;;;4982159;28;20447;-86
2022/08/05 00:51:59;;;;;;;4.00;3.70;;;25.40;95.10;;;;;;4977370;28;20507;-86
2022/08/05 00:54:26;;;;;;;6.33;4.10;;;25.40;95.40;;;;;;4996226;28;21422;-85
2022/08/05 00:56:55;;;;;;;3.70;3.00;;;25.40;95.30;;;;;;4999522;28;20502;-84
2022/08/05 00:59:22;;;;;;;6.40;3.90;;;25.50;95.20;;;;;;5017605;28;20517;-85
2022/08/05 01:01:49;;;;;;;3.43;3.10;;;25.50;95.10;;;;;;5014914;28;20561;-86
2022/08/05 01:04:16;;;;;;;3.73;3.30;;;25.60;94.90;;;;;;4990651;28;20489;-85
2022/08/05 01:06:46;;;;;;;4.90;3.30;;;25.60;94.90;;;;;;4985257;28;20494;-84
2022/08/05 01:09:14;;;;;;;4.53;3.10;;;25.60;95.00;;;;;;4996222;28;20487;-84
2022/08/05 01:11:44;;;;;;;4.20;3.20;;;25.50;95.10;;;;;;4972590;28;20488;-82
2022/08/05 01:14:46;;;;;;;3.70;3.40;;;25.50;95.20;;;;;;4969270;28;20490;-81
2022/08/05 01:17:21;;;;;;;4.83;2.83;;;25.50;95.20;;;;;;4972996;28;20446;-81
2022/08/05 01:19:53;;;;;;;3.90;3.03;;;25.50;95.20;;;;;;4987710;28;20454;-82
2022/08/05 01:22:35;;;;;;;3.83;3.30;;;25.40;95.30;;;;;;4987571;28;20483;-81
2022/08/05 01:25:23;;;;;;;3.20;2.80;;;25.50;95.30;;;;;;4983130;28;20474;-83
2022/08/05 01:28:04;;;;;;;3.97;3.57;;;25.50;95.20;;;;;;4982522;28;21355;-84
2022/08/05 01:30:35;;;;;;;5.10;3.23;;;25.50;95.10;;;;;;4986315;28;20450;-86
2022/08/05 01:33:07;;;;;;;3.23;2.80;;;25.50;95.20;;;;;;4987147;28;20596;-85
2022/08/05 01:35:41;;;;;;;3.77;3.00;;;25.50;95.10;;;;;;4988860;28;20470;-85
2022/08/05 01:38:19;;;;;;;5.50;3.50;;;25.50;95.00;;;;;;4999694;28;20974;-85
2022/08/05 01:40:51;;;;;;;4.20;3.10;;;25.30;94.60;;;;;;4970138;28;20454;-84
2022/08/05 01:43:19;;;;;;;3.17;2.80;;;25.20;94.80;;;;;;4969267;28;20481;-83
2022/08/05 01:45:48;;;;;;;3.30;2.53;;;25.00;94.80;;;;;;4985446;28;20494;-86
2022/08/05 01:48:26;;;;;;;3.27;2.73;;;24.90;95.00;;;;;;4986130;28;20497;-82
2022/08/05 01:50:55;;;;;;;3.53;2.80;;;24.80;95.00;;;;;;4986672;28;20462;-87
2022/08/05 01:53:23;;;;;;;3.43;3.13;;;24.60;95.30;;;;;;4988378;28;20487;-88
2022/08/05 01:56:17;;;;;;;3.50;2.90;;;24.50;95.30;;;;;;4975521;28;20468;-84
2022/08/05 01:59:08;;;;;;;2.50;2.30;;;24.30;95.40;;;;;;4973749;28;20447;-85
2022/08/05 02:01:36;;;;;;;2.97;2.77;;;24.20;95.70;;;;;;4977751;28;20506;-87
2022/08/05 02:04:07;;;;;;;4.23;2.77;;;24.20;95.80;;;;;;4989124;28;20462;-86
2022/08/05 02:06:35;;;;;;;3.97;2.90;;;24.20;95.80;;;;;;5002277;28;20453;-86
2022/08/05 02:09:05;;;;;;;4.47;3.57;;;24.00;95.90;;;;;;4990337;28;20455;-86
2022/08/05 02:11:41;;;;;;;4.40;3.07;;;23.80;96.20;;;;;;5000964;28;20451;-88
2022/08/05 02:14:24;;;;;;;4.20;3.10;;;23.70;96.50;;;;;;4982945;28;20486;-87
2022/08/05 02:16:58;;;;;;;4.90;3.20;;;23.70;96.70;;;;;;5002000;28;20501;-87
2022/08/05 02:19:45;;;;;;;4.67;4.27;;;23.70;96.80;;;;;;4991489;28;20453;-87
2022/08/05 02:22:19;;;;;;;3.50;3.17;;;23.60;97.00;;;;;;4997797;28;20491;-85
2022/08/05 02:25:00;;;;;;;3.83;3.40;;;23.40;97.30;;;;;;4977092;28;20467;-86
2022/08/05 02:27:29;;;;;;;4.57;4.10;;;23.40;97.60;;;;;;4982731;28;21074;-85
2022/08/05 02:30:17;;;;;;;5.67;3.80;;;23.30;98.00;;;;;;4996904;28;20467;-85
2022/08/05 02:32:50;;;;;;;6.07;5.03;;;23.30;99.00;;;;;;4975535;28;20503;-87
2022/08/05 02:35:21;;;;;;;9.87;5.67;;;23.20;99.90;;;;;;4986981;28;20444;-86
2022/08/05 02:37:55;;;;;;;5.70;5.20;;;23.00;99.90;;;;;;4987603;28;20455;-86
2022/08/05 02:40:23;;;;;;;8.83;5.93;;;23.00;99.90;;;;;;4969554;28;20463;-84
2022/08/05 02:42:51;;;;;;;7.40;4.80;;;22.90;99.90;;;;;;4970593;28;20478;-85
2022/08/05 02:45:21;;;;;;;6.20;5.20;;;22.90;99.90;;;;;;4969926;28;20571;-86
2022/08/05 02:47:53;;;;;;;6.03;5.43;;;22.80;99.90;;;;;;4987569;28;20455;-86
2022/08/05 02:50:25;;;;;;;8.37;6.00;;;22.70;99.90;;;;;;4987797;28;20473;-85
2022/08/05 02:52:53;;;;;;;6.87;6.00;;;22.70;99.90;;;;;;4986191;28;20486;-86
2022/08/05 02:55:20;;;;;;;7.10;5.20;;;22.80;99.90;;;;;;4988410;28;20479;-86
2022/08/05 02:58:07;;;;;;;7.67;6.00;;;22.80;99.90;;;;;;4971991;28;20924;-85
2022/08/05 03:00:39;;;;;;;9.17;7.07;;;22.90;99.90;;;;;;4970628;28;20469;-85
2022/08/05 03:03:07;;;;;;;8.23;6.50;;;22.90;99.90;;;;;;4987913;28;20488;-85
2022/08/05 03:05:38;;;;;;;8.87;6.23;;;22.70;99.90;;;;;;4969896;28;20515;-85
2022/08/05 03:08:25;;;;;;;7.87;7.17;;;22.60;99.90;;;;;;4987421;28;20819;-86
2022/08/05 03:10:52;;;;;;;10.07;7.67;;;22.40;99.90;;;;;;4988300;28;20477;-87
2022/08/05 03:13:27;;;;;;;8.30;7.57;;;22.30;99.90;;;;;;4990105;28;20577;-84
2022/08/05 03:15:53;;;;;;;8.73;7.30;;;22.30;99.90;;;;;;4984746;28;20459;-84
2022/08/05 03:18:20;;;;;;;9.57;8.73;;;22.50;99.90;;;;;;4967151;28;20463;-84
2022/08/05 03:20:50;;;;;;;9.43;8.53;;;22.60;99.90;;;;;;4982381;28;20459;-82
2022/08/05 03:23:17;;;;;;;9.67;8.77;;;22.70;99.90;;;;;;4967284;28;20494;-87
2022/08/05 03:25:43;;;;;;;8.73;7.93;;;22.70;99.90;;;;;;4965907;28;20457;-85
2022/08/05 03:28:31;;;;;;;8.60;7.70;;;22.70;99.90;;;;;;4967652;28;20451;-86
2022/08/05 03:30:59;;;;;;;9.80;8.90;;;22.90;99.90;;;;;;4965784;28;20461;-83
2022/08/05 03:33:27;;;;;;;9.20;8.40;;;23.10;99.90;;;;;;4982324;28;20499;-86
2022/08/05 03:35:58;;;;;;;10.87;9.87;;;22.90;99.90;;;;;;4970227;28;20435;-87
2022/08/05 03:38:25;;;;;;;10.27;9.40;;;22.60;99.90;;;;;;4994662;28;20455;-86
2022/08/05 03:40:59;;;;;;;8.57;7.83;;;22.40;99.90;;;;;;4978881;28;20563;-87
2022/08/05 03:43:26;;;;;;;8.93;8.10;;;22.30;99.90;;;;;;4972776;28;20493;-85
2022/08/05 03:46:12;;;;;;;8.63;7.90;;;22.30;99.90;;;;;;4976482;28;20460;-86
2022/08/05 03:48:39;;;;;;;9.10;8.30;;;22.50;99.90;;;;;;5000725;28;20470;-86
2022/08/05 03:51:17;;;;;;;10.23;9.10;;;22.40;99.90;;;;;;4993259;28;20473;-84
2022/08/05 03:54:11;;;;;;;9.63;8.63;;;22.30;99.90;;;;;;4998050;28;20475;-84
2022/08/05 03:56:58;;;;;;;11.50;9.83;;;22.10;99.90;;;;;;4998439;28;20459;-83
2022/08/05 03:59:32;;;;;;;10.80;9.70;;;22.00;99.90;;;;;;5031114;28;20539;-84
2022/08/05 04:02:15;;;;;;;10.43;9.43;;;21.90;99.90;;;;;;4987506;28;20521;-84
2022/08/05 04:04:43;;;;;;;9.67;8.20;;;21.80;99.90;;;;;;4996222;28;20598;-87
2022/08/05 04:07:10;;;;;;;9.47;8.47;;;21.80;99.90;;;;;;4987460;28;20492;-86
2022/08/05 04:09:38;;;;;;;9.33;8.50;;;21.80;99.90;;;;;;4981720;28;20479;-84
2022/08/05 04:12:05;;;;;;;10.03;9.10;;;22.10;99.90;;;;;;4987675;28;20478;-86
2022/08/05 04:14:49;;;;;;;10.73;9.70;;;22.20;99.90;;;;;;4985955;28;20481;-85
2022/08/05 04:17:16;;;;;;;11.17;9.73;;;22.30;99.90;;;;;;4971262;28;20458;-87
2022/08/05 04:19:45;;;;;;;11.90;10.13;;;22.00;99.90;;;;;;4987924;28;20469;-86
2022/08/05 04:22:12;;;;;;;12.43;11.13;;;22.00;99.90;;;;;;4988856;28;20506;-84
2022/08/05 04:24:40;;;;;;;12.10;10.90;;;21.90;99.90;;;;;;4988340;28;20469;-84
2022/08/05 04:27:11;;;;;;;11.40;10.40;;;21.80;99.90;;;;;;4987348;28;20513;-83
2022/08/05 04:29:38;;;;;;;11.60;10.40;;;21.80;99.90;;;;;;4978529;28;20467;-85
2022/08/05 04:32:06;;;;;;;12.77;11.50;;;22.10;99.90;;;;;;4988372;28;20482;-86
2022/08/05 04:34:33;;;;;;;11.60;10.37;;;22.20;99.90;;;;;;4989682;28;20501;-84
2022/08/05 04:37:03;;;;;;;12.70;11.50;;;22.00;99.90;;;;;;4992367;28;20471;-87
2022/08/05 04:39:30;;;;;;;14.40;12.20;;;21.80;99.90;;;;;;4986735;28;20480;-84
2022/08/05 04:41:57;;;;;;;11.53;10.40;;;21.70;99.90;;;;;;4996185;28;20472;-85
2022/08/05 04:44:24;;;;;;;11.37;10.20;;;21.70;99.90;;;;;;4989815;28;20552;-86
2022/08/05 04:46:57;;;;;;;16.73;12.00;;;21.70;99.90;;;;;;4973007;28;20574;-86
2022/08/05 04:49:24;;;;;;;14.73;13.27;;;21.70;99.90;;;;;;4988680;28;21034;-87
2022/08/05 04:52:05;;;;;;;13.07;11.43;;;21.70;99.90;;;;;;4972560;28;20495;-84
2022/08/05 04:54:33;;;;;;;14.30;11.87;;;21.80;99.90;;;;;;4986171;28;20545;-84
2022/08/05 04:57:00;;;;;;;13.07;11.30;;;21.80;99.90;;;;;;4988581;28;20455;-84
2022/08/05 04:59:26;;;;;;;13.17;11.87;;;21.90;99.90;;;;;;4977154;28;20562;-86
2022/08/05 05:02:05;;;;;;;12.70;11.50;;;22.00;99.90;;;;;;4992009;28;20478;-84
2022/08/05 05:04:51;;;;;;;12.80;11.50;;;22.00;99.90;;;;;;4992020;28;20472;-86
2022/08/05 05:07:18;;;;;;;13.13;11.83;;;21.80;99.90;;;;;;4988415;28;20470;-84
2022/08/05 05:09:50;;;;;;;12.17;10.97;;;21.70;99.90;;;;;;4989074;28;20466;-86
2022/08/05 05:12:17;;;;;;;14.33;12.87;;;21.80;99.90;;;;;;5000837;28;20498;-84
2022/08/05 05:14:44;;;;;;;13.20;12.00;;;21.80;99.90;;;;;;4982690;28;20479;-84
2022/08/05 05:17:15;;;;;;;14.33;12.93;;;21.80;99.90;;;;;;4987716;28;20447;-84
2022/08/05 05:19:45;;;;;;;15.47;14.03;;;21.80;99.90;;;;;;5023480;28;20468;-84
2022/08/05 05:22:13;;;;;;;15.97;14.37;;;21.70;99.90;;;;;;5001728;28;20513;-83
2022/08/05 05:24:50;;;;;;;16.63;14.93;;;21.70;99.90;;;;;;4996917;28;20534;-84
2022/08/05 05:27:26;;;;;;;19.50;17.53;;;21.80;99.90;;;;;;4992587;28;20516;-87
2022/08/05 05:30:08;;;;;;;22.53;19.50;;;21.90;99.90;;;;;;4992832;28;20473;-85
2022/08/05 05:32:41;;;;;;;18.30;16.50;;;22.00;99.90;;;;;;4993838;28;20553;-85
2022/08/05 05:35:08;;;;;;;18.50;16.50;;;21.90;99.90;;;;;;4994187;28;20474;-86
2022/08/05 05:37:53;;;;;;;20.40;18.30;;;22.00;99.90;;;;;;5014343;28;20469;-85
2022/08/05 05:40:26;;;;;;;20.83;18.80;;;21.90;99.90;;;;;;5003022;28;20459;-88
2022/08/05 05:42:53;;;;;;;20.00;18.10;;;21.90;99.90;;;;;;5011664;28;20514;-86
2022/08/05 05:45:20;;;;;;;20.37;18.47;;;22.00;99.90;;;;;;4990324;28;20450;-86
2022/08/05 05:47:48;;;;;;;22.13;19.03;;;22.00;99.90;;;;;;5025026;28;20630;-86
2022/08/05 05:50:35;;;;;;;22.60;20.20;;;21.90;99.90;;;;;;5011425;28;20448;-87
2022/08/05 05:53:10;;;;;;;23.10;20.30;;;21.90;99.90;;;;;;4999223;28;20473;-85
2022/08/05 05:55:47;;;;;;;30.23;21.60;;;21.90;99.90;;;;;;5001195;28;20473;-85
2022/08/05 05:58:18;;;;;;;25.20;22.70;;;21.80;99.90;;;;;;5015984;28;20439;-84
2022/08/05 06:00:44;;;;;;;25.00;21.27;;;21.80;99.90;;;;;;5016973;28;20578;-85
2022/08/05 06:03:11;;;;;;;26.30;22.50;;;21.90;99.90;;;;;;5001959;28;20470;-86
2022/08/05 06:05:54;;;;;;;25.80;21.70;;;22.00;99.90;;;;;;5003640;28;20455;-83
2022/08/05 06:08:21;;;;;;;25.83;20.43;;;22.10;99.90;;;;;;5016596;28;20495;-84
2022/08/05 06:10:57;;;;;;;23.93;21.30;;;22.00;99.90;;;;;;5003429;28;20510;-85
2022/08/05 06:13:24;;;;;;;24.97;22.27;;;22.00;99.90;;;;;;4997533;28;20486;-86
2022/08/05 06:15:51;;;;;;;24.50;20.87;;;22.10;99.90;;;;;;5001809;28;20529;-85
2022/08/05 06:18:37;;;;;;;25.83;21.20;;;22.10;99.90;;;;;;4991022;28;20447;-85
2022/08/05 06:21:04;;;;;;;23.40;20.90;;;22.00;99.90;;;;;;4986336;28;20450;-84
2022/08/05 06:23:33;;;;;;;29.70;22.13;;;22.00;99.90;;;;;;4988946;28;20877;-86
2022/08/05 06:26:09;;;;;;;28.93;22.33;;;22.00;99.90;;;;;;4970032;28;20457;-86
2022/08/05 06:28:39;;;;;;;31.40;24.60;;;22.00;99.90;;;;;;4987421;28;20459;-85
2022/08/05 06:31:06;;;;;;;32.47;25.23;;;22.00;99.90;;;;;;4994228;28;20487;-86
2022/08/05 06:33:36;;;;;;;30.10;23.17;;;22.00;99.90;;;;;;4980265;28;20514;-85
2022/08/05 06:36:23;;;;;;;27.70;21.77;;;21.90;99.90;;;;;;4979919;28;20455;-84
2022/08/05 06:38:53;;;;;;;31.50;24.40;;;21.90;99.90;;;;;;4978963;28;20455;-85
2022/08/05 06:41:24;;;;;;;32.17;23.83;;;21.80;99.90;;;;;;4974683;28;20518;-86
2022/08/05 06:43:50;;;;;;;32.57;24.63;;;21.90;99.90;;;;;;4992610;28;20460;-86
2022/08/05 06:46:25;;;;;;;32.63;23.40;;;22.00;99.90;;;;;;4988839;28;20470;-85
2022/08/05 06:48:56;;;;;;;33.47;25.23;;;22.00;99.90;;;;;;4989134;28;20537;-85
2022/08/05 06:51:25;;;;;;;30.67;23.00;;;22.00;99.90;;;;;;4999736;28;21107;-86
2022/08/05 06:53:58;;;;;;;33.77;25.53;;;22.00;99.90;;;;;;4990958;28;20474;-86
2022/08/05 06:56:27;;;;;;;32.37;24.07;;;22.00;99.90;;;;;;4973365;28;20446;-86
2022/08/05 06:58:55;;;;;;;32.63;23.87;;;22.00;99.90;;;;;;4991705;28;21096;-84
2022/08/05 07:01:22;;;;;;;32.73;26.23;;;22.00;99.90;;;;;;4977504;28;20454;-85
2022/08/05 07:03:53;;;;;;;31.80;23.63;;;22.00;99.90;;;;;;4976240;28;20521;-85
2022/08/05 07:06:21;;;;;;;34.13;25.30;;;22.10;99.90;;;;;;4973386;28;20459;-87
2022/08/05 07:08:49;;;;;;;33.93;26.13;;;22.10;99.90;;;;;;4974763;28;20463;-86
2022/08/05 07:11:17;;;;;;;35.60;26.90;;;22.10;99.90;;;;;;4971482;28;20491;-86
2022/08/05 07:16:50;;;;;;;38.07;26.40;;;21.90;99.90;;;;;;4994636;28;21122;-87
2022/08/05 07:19:37;;;;;;;40.73;27.70;;;21.90;99.90;;;;;;4973265;28;20475;-85
2022/08/05 07:22:24;;;;;;;37.73;27.77;;;21.90;99.90;;;;;;4971972;28;20498;-85
2022/08/05 07:24:55;;;;;;;35.07;25.27;;;21.90;99.90;;;;;;4986338;28;21821;-87
2022/08/05 07:27:21;;;;;;;34.23;24.77;;;22.00;99.90;;;;;;4979588;28;20462;-87
2022/08/05 07:29:48;;;;;;;37.67;26.40;;;21.90;99.90;;;;;;4989320;28;20475;-84
2022/08/05 07:32:37;;;;;;;35.70;25.93;;;21.90;99.90;;;;;;4987480;28;20478;-86
2022/08/05 07:35:08;;;;;;;32.20;25.40;;;21.90;99.90;;;;;;4989401;28;21011;-84
2022/08/05 07:37:54;;;;;;;36.67;26.13;;;21.80;99.90;;;;;;4987163;28;20451;-86
2022/08/05 07:40:21;;;;;;;36.17;26.53;;;21.70;99.90;;;;;;4988338;28;20466;-85
2022/08/05 07:42:52;;;;;;;34.87;27.07;;;21.80;99.90;;;;;;4973891;28;20478;-83
2022/08/05 07:45:19;;;;;;;35.23;27.70;;;21.80;99.90;;;;;;4990084;28;20471;-86
2022/08/05 07:48:06;;;;;;;35.30;26.60;;;21.70;99.90;;;;;;4974270;28;20838;-84
2022/08/05 07:50:33;;;;;;;39.70;31.20;;;21.70;99.90;;;;;;4985519;28;20552;-86
2022/08/05 07:53:00;;;;;;;36.97;27.40;;;21.60;99.90;;;;;;4973254;28;20484;-85
2022/08/05 07:55:26;;;;;;;33.13;26.20;;;21.60;99.90;;;;;;4966960;28;20475;-86
2022/08/05 07:58:10;;;;;;;35.20;26.93;;;21.60;99.90;;;;;;4985729;28;20467;-86
2022/08/05 08:00:37;;;;;;;38.20;28.33;;;21.60;99.90;;;;;;4966571;28;20462;-86
2022/08/05 08:03:10;;;;;;;32.60;25.93;;;21.70;99.90;;;;;;4985941;28;20884;-84
2022/08/05 08:05:42;;;;;;;41.00;30.70;;;21.70;99.90;;;;;;4981728;28;20475;-84
2022/08/05 08:08:15;;;;;;;37.17;30.40;;;21.70;99.90;;;;;;4982297;28;20649;-85
2022/08/05 08:10:42;;;;;;;32.73;27.07;;;21.70;99.90;;;;;;4968796;28;20573;-84
2022/08/05 08:13:10;;;;;;;32.43;26.03;;;21.70;99.90;;;;;;4983075;28;20498;-87
2022/08/05 08:15:37;;;;;;;30.67;23.90;;;21.70;99.90;;;;;;4985728;28;20521;-85
2022/08/05 08:18:23;;;;;;;36.50;27.10;;;21.80;99.90;;;;;;4989416;28;20435;-84
2022/08/05 08:20:51;;;;;;;31.63;22.50;;;21.80;99.90;;;;;;4990728;28;20586;-85
2022/08/05 08:23:26;;;;;;;31.33;27.07;;;21.80;99.90;;;;;;5001508;28;20495;-86
2022/08/05 08:26:13;;;;;;;33.43;27.83;;;21.70;99.90;;;;;;4975792;28;20466;-85
2022/08/05 08:28:40;;;;;;;30.37;26.77;;;21.60;99.90;;;;;;4989364;28;20683;-86
2022/08/05 08:31:20;;;;;;;36.00;28.07;;;21.60;99.90;;;;;;4975822;28;20483;-86
2022/08/05 08:33:47;;;;;;;32.20;27.30;;;21.50;99.90;;;;;;4974615;28;20466;-86
2022/08/05 08:36:18;;;;;;;30.50;26.53;;;21.40;99.90;;;;;;4990087;28;20487;-86
2022/08/05 08:39:05;;;;;;;31.43;27.53;;;21.30;99.90;;;;;;4992603;28;20447;-86
2022/08/05 08:41:39;;;;;;;30.90;25.57;;;21.40;99.90;;;;;;4988592;28;20515;-84
2022/08/05 08:44:19;;;;;;;31.17;27.00;;;21.40;99.90;;;;;;4990364;28;20480;-84
2022/08/05 08:47:10;;;;;;;32.23;27.23;;;21.40;99.90;;;;;;4974310;28;20443;-86
2022/08/05 08:49:51;;;;;;;28.57;25.47;;;21.30;99.90;;;;;;4990013;28;21764;-85
2022/08/05 08:52:35;;;;;;;29.67;23.90;;;21.20;99.90;;;;;;4972443;28;20486;-87
2022/08/05 08:55:05;;;;;;;30.37;25.33;;;21.20;99.90;;;;;;4989223;28;21059;-86
2022/08/05 08:57:38;;;;;;;32.13;26.43;;;21.20;99.90;;;;;;4984508;28;20973;-86
2022/08/05 09:00:08;;;;;;;32.80;27.33;;;21.20;99.90;;;;;;4987644;28;20448;-84
2022/08/05 09:02:36;;;;;;;32.87;25.93;;;21.10;99.90;;;;;;4979742;28;20969;-84
2022/08/05 09:05:03;;;;;;;30.13;24.33;;;21.10;99.90;;;;;;4973928;28;20883;-86
2022/08/05 09:07:43;;;;;;;33.30;24.90;;;21.20;99.90;;;;;;4993683;28;20459;-85
2022/08/05 09:10:23;;;;;;;31.27;25.60;;;21.10;99.90;;;;;;4989936;28;21058;-85
2022/08/05 09:12:53;;;;;;;27.43;24.30;;;21.00;99.90;;;;;;4975033;28;20479;-82
2022/08/05 09:15:20;;;;;;;27.10;23.47;;;21.00;99.90;;;;;;4987285;28;20604;-86
2022/08/05 09:17:47;;;;;;;23.00;20.43;;;21.10;99.90;;;;;;4989435;28;20490;-87
2022/08/05 09:20:14;;;;;;;21.53;18.97;;;21.20;99.90;;;;;;4987208;28;20467;-85
2022/08/05 09:23:06;;;;;;;21.17;16.87;;;21.10;99.90;;;;;;4974575;28;20479;-85
2022/08/05 09:25:35;;;;;;;17.77;15.87;;;21.20;99.90;;;;;;4988752;28;20486;-84
2022/08/05 09:28:24;;;;;;;16.23;14.57;;;21.30;99.90;;;;;;4987355;28;20451;-85
2022/08/05 09:31:06;;;;;;;13.37;11.97;;;21.60;99.90;;;;;;4988683;28;20454;-86
2022/08/05 09:33:59;;;;;;;14.90;13.07;;;21.80;99.90;;;;;;4982318;28;20471;-85
2022/08/05 09:36:53;;;;;;;14.03;12.60;;;21.70;99.90;;;;;;5004704;28;20559;-85
2022/08/05 09:39:25;;;;;;;13.10;11.70;;;21.70;99.90;;;;;;4981051;28;20504;-87
2022/08/05 09:41:54;;;;;;;12.03;10.87;;;21.50;99.90;;;;;;4981685;28;20605;-85
2022/08/05 09:44:41;;;;;;;13.43;12.10;;;21.60;99.90;;;;;;5001954;28;20442;-84
2022/08/05 09:47:12;;;;;;;10.50;9.57;;;21.50;99.90;;;;;;4976043;28;20452;-86
2022/08/05 09:49:56;;;;;;;10.20;9.30;;;21.50;99.90;;;;;;4988724;28;20531;-85
2022/08/05 09:52:30;;;;;;;10.13;9.13;;;21.40;99.90;;;;;;4989972;28;20490;-86
2022/08/05 09:55:04;;;;;;;11.10;10.10;;;21.40;99.90;;;;;;4967260;28;20510;-84
2022/08/05 09:57:45;;;;;;;10.13;9.27;;;21.40;99.90;;;;;;4993820;28;20484;-85
2022/08/05 10:00:17;;;;;;;14.07;10.70;;;21.60;99.90;;;;;;4974281;28;20497;-85
2022/08/05 10:02:48;;;;;;;12.23;11.20;;;21.50;99.90;;;;;;4968794;28;21046;-86
2022/08/05 10:05:21;;;;;;;10.20;9.40;;;21.40;99.90;;;;;;4984157;28;20451;-87
2022/08/05 10:07:50;;;;;;;10.37;9.47;;;21.20;99.90;;;;;;4969512;28;20709;-86
2022/08/05 10:10:38;;;;;;;10.10;9.10;;;21.30;99.90;;;;;;4987353;28;20443;-84
2022/08/05 10:13:05;;;;;;;10.60;9.67;;;21.40;99.90;;;;;;4968858;28;20480;-85
2022/08/05 10:15:39;;;;;;;10.23;9.33;;;21.30;99.90;;;;;;4984419;28;20611;-86
2022/08/05 10:18:14;;;;;;;9.60;8.73;;;21.20;99.90;;;;;;4984730;28;20494;-84
2022/08/05 10:20:49;;;;;;;10.93;9.80;;;21.40;99.90;;;;;;4966970;28;20463;-84
2022/08/05 10:23:30;;;;;;;12.03;8.53;;;21.50;99.90;;;;;;4971070;28;20486;-84
2022/08/05 10:26:04;;;;;;;9.10;8.20;;;21.50;99.90;;;;;;4966800;28;20462;-87
2022/08/05 10:28:33;;;;;;;11.10;7.80;;;21.50;99.90;;;;;;4962369;28;20764;-84
2022/08/05 10:31:04;;;;;;;9.37;8.57;;;21.40;99.90;;;;;;5008869;28;20461;-86
2022/08/05 10:33:49;;;;;;;9.03;8.23;;;21.50;99.90;;;;;;4979431;28;20494;-88
2022/08/05 10:36:18;;;;;;;8.27;7.57;;;21.50;99.90;;;;;;4986458;28;20488;-87
2022/08/05 10:38:52;;;;;;;8.23;7.53;;;21.40;99.90;;;;;;4968716;28;20526;-88
2022/08/05 10:41:41;;;;;;;8.43;7.60;;;21.60;99.90;;;;;;4976058;28;20447;-86
2022/08/05 10:44:14;;;;;;;9.13;8.20;;;21.40;99.90;;;;;;4988395;28;20456;-86
2022/08/05 10:46:51;;;;;;;9.60;8.00;;;21.40;99.90;;;;;;4974773;28;20440;-87
2022/08/05 10:49:28;;;;;;;11.30;8.60;;;21.70;99.90;;;;;;4978892;28;20451;-84
2022/08/05 10:52:01;;;;;;;10.03;6.50;;;21.80;99.90;;;;;;5016424;28;20482;-86
2022/08/05 10:55:21;;;;;;;21.63;7.57;;;22.00;99.90;;;;;;4982021;28;20459;-87
2022/08/05 10:58:04;;;;;;;5.60;5.10;;;21.90;99.90;;;;;;4931545;28;20466;-87
2022/08/05 11:00:36;;;;;;;9.20;5.80;;;21.90;99.50;;;;;;4994687;28;20435;-86
2022/08/05 11:03:09;;;;;;;5.33;4.60;;;22.10;99.10;;;;;;5011526;28;20463;-86
2022/08/05 11:06:12;;;;;;;5.70;5.20;;;22.00;99.00;;;;;;4998542;28;20447;-87
2022/08/05 11:09:17;;;;;;;5.37;4.87;;;22.20;98.50;;;;;;5013273;28;20490;-88
2022/08/05 11:11:49;;;;;;;5.80;5.30;;;22.50;97.10;;;;;;4993027;28;20486;-86
2022/08/05 11:14:37;;;;;;;5.80;5.30;;;22.60;97.60;;;;;;5000900;28;20524;-85
2022/08/05 11:17:29;;;;;;;5.67;4.93;;;22.30;98.10;;;;;;5019596;28;20450;-88
2022/08/05 11:20:36;;;;;;;7.80;5.10;;;22.40;98.30;;;;;;4987158;28;20443;-87
2022/08/05 11:23:24;;;;;;;5.70;4.87;;;22.90;97.10;;;;;;4994009;28;20494;-85
2022/08/05 11:26:10;;;;;;;5.10;4.60;;;22.90;96.00;;;;;;4983244;28;20575;-86
2022/08/05 11:28:48;;;;;;;5.33;3.60;;;23.10;96.20;;;;;;4974913;28;20435;-88
2022/08/05 11:31:15;;;;;;;3.73;3.43;;;24.10;94.60;;;;;;4986818;28;20447;-88
2022/08/05 11:33:48;;;;;;;5.43;4.43;;;24.10;93.30;;;;;;4987202;28;20440;-85
2022/08/05 11:36:25;;;;;;;4.50;4.10;;;24.30;92.80;;;;;;4985316;28;20537;-86
2022/08/05 11:39:17;;;;;;;13.60;12.40;;;23.80;93.30;;;;;;4972807;28;20459;-88
2022/08/05 11:41:56;;;;;;;4.50;4.20;;;23.50;94.00;;;;;;4999076;28;20880;-88
2022/08/05 11:44:37;;;;;;;4.17;3.83;;;24.50;93.30;;;;;;4985240;28;20443;-88
2022/08/05 11:47:07;;;;;;;4.70;4.20;;;24.60;92.20;;;;;;4983753;28;20458;-87
2022/08/05 11:49:38;;;;;;;4.53;4.13;;;24.40;92.70;;;;;;4981334;28;20482;-86
2022/08/05 11:52:04;;;;;;;4.77;4.40;;;24.90;91.50;;;;;;4994437;28;20459;-90
2022/08/05 11:54:36;;;;;;;4.13;3.83;;;24.90;91.20;;;;;;4982529;28;20463;-88
2022/08/05 11:57:04;;;;;;;4.40;4.00;;;24.70;90.30;;;;;;5007962;28;20530;-88
2022/08/05 11:59:34;;;;;;;3.60;3.30;;;24.70;91.30;;;;;;5001861;28;20440;-87
2022/08/05 12:02:08;;;;;;;3.07;2.87;;;24.80;91.20;;;;;;5013896;28;20483;-88
2022/08/05 12:04:43;;;;;;;3.30;2.90;;;25.20;90.40;;;;;;4989665;28;20455;-88
2022/08/05 12:07:14;;;;;;;3.87;3.13;;;26.80;82.90;;;;;;4986220;28;20459;-86
2022/08/05 12:09:45;;;;;;;2.57;2.37;;;26.60;80.50;;;;;;5003486;28;20455;-87
2022/08/05 12:12:23;;;;;;;2.97;2.60;;;26.30;81.90;;;;;;4985699;28;20471;-87
2022/08/05 12:14:54;;;;;;;3.07;2.77;;;26.70;80.80;;;;;;4983855;28;20455;-87
2022/08/05 12:17:26;;;;;;;3.30;2.97;;;27.30;78.30;;;;;;4984708;28;20533;-87
2022/08/05 12:20:26;;;;;;;4.27;3.00;;;26.70;78.90;;;;;;4990226;28;20478;-87
2022/08/05 12:23:17;;;;;;;3.17;2.87;;;26.50;78.40;;;;;;4986653;28;20525;-87
2022/08/05 12:25:55;;;;;;;3.07;2.80;;;26.30;77.30;;;;;;4979657;28;20464;-85
2022/08/05 12:28:57;;;;;;;2.70;2.60;;;26.40;77.40;;;;;;4982741;28;20486;-88
2022/08/05 12:31:24;;;;;;;3.47;3.27;;;27.10;75.90;;;;;;4976412;28;20470;-88
2022/08/05 12:34:07;;;;;;;2.47;2.27;;;27.10;74.50;;;;;;4984253;28;20490;-88
2022/08/05 12:36:45;;;;;;;3.30;3.00;;;27.10;72.80;;;;;;4992829;28;20510;-87
2022/08/05 12:39:25;;;;;;;2.93;2.70;;;26.90;72.60;;;;;;4977415;28;20454;-87
2022/08/05 12:42:03;;;;;;;2.70;2.50;;;26.80;72.70;;;;;;4984279;28;20478;-88
2022/08/05 12:44:37;;;;;;;3.87;3.10;;;26.90;72.00;;;;;;4984562;28;20447;-87
2022/08/05 12:47:06;;;;;;;2.60;2.40;;;27.40;71.40;;;;;;5004512;28;20456;-88
2022/08/05 12:49:45;;;;;;;2.50;2.30;;;27.50;69.60;;;;;;4970300;28;20484;-87
2022/08/05 12:52:30;;;;;;;3.67;3.30;;;28.00;69.10;;;;;;4972220;28;20514;-87
2022/08/05 12:55:29;;;;;;;3.07;2.87;;;27.90;67.60;;;;;;4981051;28;20514;-87
2022/08/05 12:58:05;;;;;;;2.97;2.77;;;28.30;67.50;;;;;;4976806;28;20976;-87
2022/08/05 13:00:55;;;;;;;3.13;2.87;;;28.70;65.40;;;;;;4989711;28;20443;-88
2022/08/05 13:03:45;;;;;;;3.70;3.50;;;28.90;63.30;;;;;;4990266;28;20424;-86
2022/08/05 13:06:18;;;;;;;4.10;3.70;;;28.30;65.10;;;;;;4993166;28;20479;-87
2022/08/05 13:08:47;;;;;;;4.80;4.40;;;28.00;64.90;;;;;;4969231;28;20482;-87
2022/08/05 13:11:17;;;;;;;4.60;4.30;;;27.50;67.10;;;;;;4981300;28;20462;-88
2022/08/05 13:13:58;;;;;;;6.50;4.87;;;27.40;67.60;;;;;;4977341;28;20446;-87
2022/08/05 13:16:48;;;;;;;5.17;4.67;;;27.00;69.50;;;;;;4997667;28;20836;-86
2022/08/05 13:19:24;;;;;;;4.20;3.90;;;27.10;68.40;;;;;;4998895;28;20891;-87